Time;durP1;ratioP1;P1;durP2;ratioP2;P2;SDS_P1;SDS_P2;PMS_P1;PMS_P2;Temp;Humidity;BMP_temperature;BMP_pressure;BME280_temperature;BME280_humidity;BME280_pressure;Samples;Min_cycle;Max_cycle;Signal;HPM_P1;HPM_P2
2022/10/04 00:00:43;;;;;;;3.77;0.90;;;;;;;13.01;97.01;99006.13;5036438;28;20289;-89
2022/10/04 00:03:26;;;;;;;2.53;0.50;;;;;;;12.76;96.54;99041.31;5034766;28;20301;-83
2022/10/04 00:06:03;;;;;;;0.30;0.30;;;;;;;12.79;98.11;99083.13;5033937;28;20476;-85
2022/10/04 00:08:45;;;;;;;1.70;0.40;;;;;;;12.05;98.97;99051.38;5032781;28;20285;-86
2022/10/04 00:11:24;;;;;;;0.30;0.20;;;;;;;12.27;100.00;99122.03;5039670;28;20292;-85
2022/10/04 00:13:59;;;;;;;2.00;0.40;;;;;;;12.06;100.00;99129.84;5036171;28;20284;-86
2022/10/04 00:16:33;;;;;;;0.50;0.30;;;;;;;11.67;100.00;99116.56;5034027;28;20048;-85
2022/10/04 00:19:39;;;;;;;1.98;0.50;;;;;;;11.31;100.00;99082.22;5036818;28;20050;-85
2022/10/04 00:22:20;;;;;;;0.30;0.30;;;;;;;11.58;100.00;99127.38;5035972;28;20062;-86
2022/10/04 04:22:31;;;;;;;3.08;1.08;;;;;;;11.44;98.64;99151.47;4983776;28;20064;-89
2022/10/04 04:25:14;;;;;;;4.25;0.88;;;;;;;11.55;99.24;99169.34;4976562;28;20038;-89
2022/10/04 04:27:49;;;;;;;4.07;1.02;;;;;;;11.16;98.02;99094.97;4992524;28;20054;-90
2022/10/04 04:30:23;;;;;;;6.28;1.00;;;;;;;11.64;98.69;99180.31;4984416;28;20051;-89
2022/10/04 04:33:00;;;;;;;1.95;0.77;;;;;;;11.27;95.45;99117.22;4990381;28;20050;-89
2022/10/04 04:35:35;;;;;;;7.20;0.85;;;;;;;11.08;96.21;99078.69;4992067;28;20042;-89
2022/10/04 04:38:17;;;;;;;1.35;0.63;;;;;;;11.08;93.84;99112.66;4982586;28;20118;-86
2022/10/04 04:40:48;;;;;;;3.17;0.70;;;;;;;11.21;92.16;99176.69;4992589;28;20097;-85
2022/10/04 04:43:21;;;;;;;2.42;0.80;;;;;;;10.75;91.71;99110.38;4992660;28;20042;-85
2022/10/04 04:45:58;;;;;;;4.25;0.80;;;;;;;11.15;92.66;99170.81;4999946;28;20121;-84
2022/10/04 04:48:54;;;;;;;5.70;0.82;;;;;;;10.56;92.33;99072.78;4995606;28;20054;-85
2022/10/04 04:52:39;;;;;;;5.18;0.52;;;;;;;11.34;92.82;99203.25;5002534;28;20134;-87
2022/10/04 05:03:38;;;;;;;;;;;;;;;;;;;;;
2022/10/04 05:06:33;;;;;;;2.07;0.60;;;;;;;10.54;86.51;99116.38;4951346;29;20062;-87
2022/10/04 05:47:38;;;;;;;5.78;0.95;;;;;;;9.22;94.06;99219.56;4804301;29;20147;-85
2022/10/04 06:09:34;;;;;;;1.20;0.70;;;;;;;9.71;94.34;99259.91;4736938;30;20388;-83
2022/10/04 06:12:44;;;;;;;4.40;1.00;;;;;;;9.84;89.45;99266.47;4774083;30;20107;-84
2022/10/04 06:19:22;;;;;;;2.65;0.68;;;;;;;9.53;86.97;99265.63;4772937;30;20064;-82
2022/10/04 06:26:28;;;;;;;6.63;1.10;;;;;;;9.57;87.14;99303.78;4778490;29;20121;-82
2022/10/04 06:29:11;;;;;;;1.80;0.50;;;;;;;8.98;87.58;99189.81;4802723;29;20088;-81
2022/10/04 06:32:53;;;;;;;5.88;0.60;;;;;;;9.65;87.89;99291.38;4826533;29;20087;-82
2022/10/04 06:39:39;;;;;;;4.97;0.90;;;;;;;9.31;88.13;99255.81;4912234;29;20075;-84
2022/10/04 06:42:39;;;;;;;3.75;0.90;;;;;;;9.39;88.68;99251.25;4993654;28;20053;-80
2022/10/04 06:45:53;;;;;;;2.22;1.02;;;;;;;9.67;88.49;99306.09;5031000;28;20054;-81
2022/10/04 06:49:04;;;;;;;3.35;0.88;;;;;;;9.11;87.94;99222.47;5033417;28;20237;-81
2022/10/04 06:52:26;;;;;;;6.13;0.80;;;;;;;9.29;88.04;99247.19;5027079;28;20042;-81
2022/10/04 06:55:30;;;;;;;2.22;0.68;;;;;;;9.66;88.54;99319.16;5004561;28;20265;-81
2022/10/04 06:58:31;;;;;;;4.10;1.02;;;;;;;9.38;88.50;99272.97;5031185;28;20045;-80
2022/10/04 07:01:15;;;;;;;1.38;0.50;;;;;;;9.41;86.85;99252.06;5029222;28;20261;-80
2022/10/04 07:03:59;;;;;;;2.63;0.50;;;;;;;9.90;85.48;99339.34;5026023;28;20117;-80
2022/10/04 07:06:40;;;;;;;3.75;0.80;;;;;;;9.28;84.77;99250.66;5030917;28;20060;-80
2022/10/04 07:09:24;;;;;;;2.08;0.50;;;;;;;9.72;84.39;99325.06;5025440;28;20046;-81
2022/10/04 07:12:07;;;;;;;2.58;0.75;;;;;;;9.45;84.05;99279.75;5025422;28;20048;-81
2022/10/04 07:15:01;;;;;;;3.05;0.70;;;;;;;9.55;81.84;99316.00;5031286;28;20478;-82
2022/10/04 07:17:53;;;;;;;2.80;0.52;;;;;;;9.01;79.52;99263.56;5020314;28;20249;-81
2022/10/04 07:20:33;;;;;;;0.95;0.60;;;;;;;8.76;80.13;99246.81;5032607;28;20065;-82
2022/10/04 07:23:21;;;;;;;2.17;0.60;;;;;;;9.53;80.91;99380.38;5033836;28;20064;-81
2022/10/04 07:26:24;;;;;;;2.05;0.50;;;;;;;8.73;79.82;99275.56;5023378;28;20091;-82
2022/10/04 07:31:54;;;;;;;1.77;0.65;;;;;;;9.27;80.11;99384.53;5026297;28;20143;-81
2022/10/04 07:34:39;;;;;;;1.25;0.40;;;;;;;9.07;80.41;99332.91;5025558;28;20286;-81
2022/10/04 07:37:17;;;;;;;1.35;0.70;;;;;;;8.47;81.07;99266.63;5035191;28;20048;-80
2022/10/04 08:13:26;;;;;;;1.52;0.68;;;;;;;8.63;84.61;99411.19;4964092;29;20086;-61
2022/10/04 08:16:10;;;;;;;1.42;0.60;;;;;;;8.66;85.05;99423.28;4965702;28;20106;-60
2022/10/04 08:19:15;;;;;;;5.20;0.80;;;;;;;8.68;85.78;99407.63;4965078;29;20141;-60
2022/10/04 08:22:04;;;;;;;1.67;0.60;;;;;;;8.63;85.25;99408.59;4939253;29;20214;-60
2022/10/04 08:24:53;;;;;;;0.90;0.50;;;;;;;8.62;85.66;99417.28;4964851;29;20216;-60
2022/10/04 08:29:41;;;;;;;6.15;0.68;;;;;;;8.37;86.20;99395.25;4964213;29;20090;-60
2022/10/04 08:31:16;;;;;;;1.70;0.73;;;;;;;8.48;86.06;99421.94;4965454;28;20111;-60
2022/10/04 08:34:30;;;;;;;7.22;1.70;;;;;;;8.50;86.60;99438.38;4932693;29;20070;-60
2022/10/04 08:38:04;;;;;;;4.43;1.92;;;;;;;8.49;86.90;99441.03;4963928;28;20227;-61
2022/10/04 08:41:29;;;;;;;2.97;1.10;;;;;;;8.58;87.00;99452.09;4964883;28;20063;-59
2022/10/04 08:45:10;;;;;;;4.18;1.05;;;;;;;7.94;86.78;99344.13;4965239;29;20372;-60
2022/10/04 08:52:20;;;;;;;6.00;1.05;;;;;;;8.50;87.03;99454.00;4964606;29;20051;-60
2022/10/04 08:55:25;;;;;;;2.22;0.93;;;;;;;8.50;85.85;99454.00;4820668;29;20354;-61
2022/10/04 09:05:13;;;;;;;4.15;1.23;;;;;;;8.43;85.32;99484.50;4860800;29;20072;-61
2022/10/04 09:08:36;;;;;;;6.60;1.35;;;;;;;8.33;84.96;99482.09;4859658;29;20058;-59
2022/10/04 09:11:34;;;;;;;2.40;1.20;;;;;;;8.24;85.28;99477.94;4838315;29;20053;-60
2022/10/04 09:14:38;;;;;;;1.25;0.70;;;;;;;8.36;85.39;99503.75;4858702;29;20069;-60
2022/10/04 09:17:49;;;;;;;2.50;1.27;;;;;;;8.36;83.88;99514.16;4858444;29;20115;-60
2022/10/04 09:21:08;;;;;;;1.48;0.68;;;;;;;8.36;83.78;99521.06;4859082;29;20065;-60
2022/10/04 09:24:24;;;;;;;1.92;0.88;;;;;;;8.30;83.80;99521.22;4815460;29;20093;-60
2022/10/04 09:27:27;;;;;;;4.40;2.10;;;;;;;8.26;84.34;99516.94;4859470;29;20062;-61
2022/10/04 09:30:38;;;;;;;7.88;1.50;;;;;;;8.26;84.98;99522.13;4905771;29;20104;-61
2022/10/04 09:33:48;;;;;;;6.35;0.90;;;;;;;8.27;85.25;99524.72;4907256;29;20345;-60
2022/10/04 09:39:55;;;;;;;;;;;;;;;8.10;85.38;99530.22;4905535;29;20956;-59
2022/10/04 09:46:11;;;;;;;2.80;0.70;;;;;;;8.02;87.18;99534.72;4854725;29;20105;-60
2022/10/04 09:49:09;;;;;;;2.03;0.68;;;;;;;7.96;87.73;99548.72;4828974;29;20066;-61
2022/10/04 09:52:24;;;;;;;3.60;0.90;;;;;;;7.97;88.56;99553.00;4857735;29;20124;-60
2022/10/04 09:55:16;;;;;;;2.80;0.73;;;;;;;7.98;88.25;99565.13;4857938;29;20089;-61
2022/10/04 09:58:28;;;;;;;1.27;0.70;;;;;;;7.96;87.72;99571.22;4843321;29;20204;-60
2022/10/04 10:01:19;;;;;;;3.90;1.10;;;;;;;7.88;87.91;99557.50;4857284;29;20066;-62
2022/10/04 10:04:24;;;;;;;2.53;1.00;;;;;;;7.93;87.66;99566.09;4858044;29;20286;-61
2022/10/04 10:07:17;;;;;;;4.45;1.23;;;;;;;7.92;87.37;99574.78;4858275;29;20057;-60
2022/10/04 10:16:52;;;;;;;1.02;0.60;;;;;;;7.88;86.86;99578.31;4858054;29;20057;-60
2022/10/04 10:20:17;;;;;;;8.88;1.17;;;;;;;7.84;86.89;99584.44;4835220;29;20124;-60
2022/10/04 10:23:50;;;;;;;2.78;0.73;;;;;;;7.83;87.11;99585.34;4877203;29;20073;-61
2022/10/04 10:27:00;;;;;;;1.42;0.70;;;;;;;7.82;87.05;99589.69;4888908;29;20060;-60
2022/10/04 10:30:20;;;;;;;5.72;1.20;;;;;;;7.77;87.20;99602.75;4893966;29;20120;-60
2022/10/04 10:33:55;;;;;;;4.75;1.10;;;;;;;7.71;87.25;99596.78;4883436;29;20048;-61
2022/10/04 10:37:21;;;;;;;4.38;1.25;;;;;;;7.69;87.49;99583.81;4817852;29;20125;-60
2022/10/04 10:40:29;;;;;;;4.95;1.10;;;;;;;7.73;87.61;99595.88;4748573;30;20123;-61
2022/10/04 10:43:30;;;;;;;1.45;0.93;;;;;;;7.64;87.11;99593.44;4749229;30;20118;-61
2022/10/04 10:46:22;;;;;;;2.65;0.93;;;;;;;7.60;87.23;99602.16;4748450;30;20052;-62
2022/10/04 10:49:34;;;;;;;3.13;1.00;;;;;;;7.61;87.46;99606.47;4750038;30;20078;-61
2022/10/04 10:52:54;;;;;;;1.65;0.80;;;;;;;7.56;86.89;99600.47;4722390;30;20092;-61
2022/10/04 10:55:58;;;;;;;3.40;1.90;;;;;;;7.45;85.51;99604.97;4748700;30;20090;-62
2022/10/04 10:59:25;;;;;;;6.47;1.70;;;;;;;7.42;85.20;99605.03;4748880;30;20055;-62
2022/10/04 11:02:39;;;;;;;5.18;2.17;;;;;;;7.41;84.98;99608.50;4749263;30;20270;-62
2022/10/04 11:06:02;;;;;;;9.88;4.35;;;;;;;7.34;84.88;99611.19;4722902;30;20091;-62
2022/10/04 11:09:31;;;;;;;6.13;1.38;;;;;;;7.30;85.12;99616.44;4748946;30;20260;-61
2022/10/04 11:12:51;;;;;;;2.47;0.68;;;;;;;7.30;85.60;99627.69;4717540;30;20071;-62
2022/10/04 11:16:26;;;;;;;3.40;0.80;;;;;;;7.32;85.52;99631.13;4859079;29;20128;-62
2022/10/04 11:19:53;;;;;;;2.53;0.80;;;;;;;7.37;85.31;99617.22;4908642;29;20322;-62
2022/10/04 11:23:20;;;;;;;3.88;0.70;;;;;;;7.37;84.69;99628.47;4886527;29;20096;-61
2022/10/04 11:27:00;;;;;;;1.60;0.80;;;;;;;7.30;84.46;99632.03;4867142;29;20050;-62
2022/10/04 11:30:25;;;;;;;3.15;0.60;;;;;;;7.29;83.63;99631.19;4806253;29;20059;-62
2022/10/04 11:33:47;;;;;;;1.75;0.70;;;;;;;7.25;83.56;99642.50;4868087;29;20129;-62
2022/10/04 11:37:08;;;;;;;5.18;1.02;;;;;;;7.29;82.39;99641.59;4869179;29;20064;-62
2022/10/04 11:40:18;;;;;;;1.85;0.75;;;;;;;7.23;82.76;99646.84;4869459;29;20159;-62
2022/10/04 11:43:23;;;;;;;5.50;1.00;;;;;;;7.20;82.53;99656.44;4868078;29;20045;-62
2022/10/04 11:46:15;;;;;;;4.75;0.90;;;;;;;6.76;82.94;99596.31;4869463;29;20149;-62
2022/10/04 11:49:15;;;;;;;2.42;0.90;;;;;;;6.62;82.43;99559.28;4867355;29;20053;-61
2022/10/04 11:52:21;;;;;;;2.45;0.90;;;;;;;7.16;82.76;99659.94;4867496;29;20045;-62
2022/10/04 11:55:23;;;;;;;8.60;2.88;;;;;;;7.19;82.79;99659.88;4853042;29;20058;-62
2022/10/04 11:58:08;;;;;;;4.05;1.10;;;;;;;6.96;82.47;99634.19;4842614;29;20057;-62
2022/10/04 12:01:37;;;;;;;5.45;1.25;;;;;;;7.11;82.58;99672.97;4881003;29;20063;-62
2022/10/04 12:05:00;;;;;;;1.10;0.65;;;;;;;7.02;82.23;99667.91;4907322;29;20104;-63
2022/10/04 12:07:55;;;;;;;0.55;0.50;;;;;;;7.04;82.57;99680.00;4896533;29;20067;-63
2022/10/04 12:11:14;;;;;;;1.60;0.70;;;;;;;7.01;82.44;99677.41;4868401;29;20084;-62
2022/10/04 12:14:25;;;;;;;2.08;0.60;;;;;;;6.99;82.98;99673.09;4868260;29;20298;-62
2022/10/04 12:17:51;;;;;;;4.82;0.70;;;;;;;6.99;82.80;99679.19;4857412;29;20057;-61
2022/10/04 12:21:02;;;;;;;3.35;0.50;;;;;;;6.83;82.75;99652.50;4892035;29;20052;-62
2022/10/04 12:24:10;;;;;;;3.13;0.65;;;;;;;6.91;81.92;99697.47;4811879;29;20133;-62
2022/10/04 12:27:19;;;;;;;2.97;0.75;;;;;;;6.89;82.68;99694.00;4839930;29;20058;-63
2022/10/04 12:30:38;;;;;;;3.45;0.60;;;;;;;6.67;82.79;99666.53;4832917;29;20089;-62
2022/10/04 12:33:33;;;;;;;1.05;0.52;;;;;;;6.66;82.96;99670.88;4841214;29;20112;-62
2022/10/04 12:36:28;;;;;;;2.50;0.65;;;;;;;6.90;83.83;99710.44;4842586;29;20197;-62
2022/10/04 12:39:30;;;;;;;3.88;0.70;;;;;;;6.85;82.54;99707.88;4859796;29;20046;-62
2022/10/04 12:42:24;;;;;;;2.05;0.68;;;;;;;6.78;81.75;99711.41;4789934;29;20067;-62
2022/10/04 12:45:28;;;;;;;1.33;0.60;;;;;;;6.70;81.94;99708.03;4886913;29;20368;-62
2022/10/04 12:48:57;;;;;;;2.50;0.68;;;;;;;6.60;81.86;99706.41;4856440;29;20065;-62
2022/10/04 12:52:15;;;;;;;2.47;0.60;;;;;;;6.01;81.46;99621.28;4887187;29;20057;-62
2022/10/04 12:55:00;;;;;;;1.38;0.47;;;;;;;6.45;81.95;99707.41;4886990;29;20128;-63
2022/10/04 12:57:55;;;;;;;0.95;0.60;;;;;;;5.87;82.21;99625.69;4885355;29;20121;-62
2022/10/04 13:00:50;;;;;;;;;;;;;;;6.28;82.26;99710.13;4915960;29;20059;-63
2022/10/04 13:03:44;;;;;;;2.47;0.70;;;;;;;6.25;82.69;99715.34;4924986;28;20359;-62
2022/10/04 13:06:40;;;;;;;2.30;1.10;;;;;;;6.18;82.87;99703.28;4923209;29;20052;-62
2022/10/04 13:09:30;;;;;;;1.98;0.80;;;;;;;6.15;83.53;99703.31;4925817;29;20056;-62
2022/10/04 13:12:31;;;;;;;1.33;0.60;;;;;;;6.05;83.38;99698.19;4877789;29;20064;-62
2022/10/04 13:15:29;;;;;;;2.80;0.73;;;;;;;6.00;83.51;99720.72;4900848;29;20083;-63
2022/10/04 13:19:01;;;;;;;2.22;0.77;;;;;;;5.91;83.62;99714.69;4925811;29;20135;-61
2022/10/04 13:22:07;;;;;;;1.30;0.60;;;;;;;5.22;84.17;99603.63;4925160;29;20079;-62
2022/10/04 13:25:40;;;;;;;1.08;0.60;;;;;;;5.88;84.63;99722.47;4926018;29;20044;-62
2022/10/04 13:28:30;;;;;;;3.05;0.68;;;;;;;5.80;85.38;99727.72;4926022;29;20120;-62
2022/10/04 13:31:21;;;;;;;4.20;0.77;;;;;;;5.78;85.47;99724.25;4909517;29;20115;-62
2022/10/04 13:34:04;;;;;;;;;;;;;;;5.74;85.71;99727.72;4923247;29;20129;-63
2022/10/04 13:37:06;;;;;;;2.60;0.60;;;;;;;5.68;85.67;99727.78;4925308;29;19986;-62
2022/10/04 13:43:19;;;;;;;3.30;0.65;;;;;;;5.63;86.17;99718.28;4900439;29;20209;-62
2022/10/04 13:46:15;;;;;;;1.75;0.70;;;;;;;5.69;85.73;99734.69;4925508;29;20055;-62
2022/10/04 13:49:23;;;;;;;6.55;0.80;;;;;;;5.60;85.87;99736.44;4895535;29;20067;-62
2022/10/04 13:58:51;;;;;;;3.00;0.88;;;;;;;5.31;86.57;99722.75;4924608;29;20040;-61
2022/10/04 14:02:00;;;;;;;2.92;0.75;;;;;;;5.48;84.99;99740.81;4924323;29;20103;-64
2022/10/04 14:04:59;;;;;;;1.02;0.70;;;;;;;5.50;85.00;99737.38;4924914;29;20075;-62
2022/10/04 14:08:32;;;;;;;2.10;0.60;;;;;;;5.52;84.80;99753.78;4922924;29;20281;-62
2022/10/04 14:12:13;;;;;;;1.77;0.77;;;;;;;5.50;85.19;99755.50;4924789;29;20052;-62
2022/10/04 14:15:40;;;;;;;1.25;0.70;;;;;;;5.49;85.17;99764.16;4885614;29;20060;-63
2022/10/04 14:22:14;;;;;;;4.93;0.90;;;;;;;5.45;85.66;99757.25;4810482;29;20162;-62
2022/10/04 14:25:38;;;;;;;1.95;0.57;;;;;;;5.47;86.02;99765.88;4794206;30;20043;-62
2022/10/04 14:28:53;;;;;;;4.93;0.85;;;;;;;5.52;85.71;99764.13;4805233;29;20094;-63
2022/10/04 14:32:06;;;;;;;1.77;0.70;;;;;;;5.44;85.82;99755.50;4807432;29;20069;-62
2022/10/04 14:35:13;;;;;;;3.92;0.75;;;;;;;5.52;86.04;99766.72;4811617;29;20143;-63
2022/10/04 14:38:26;;;;;;;0.90;0.63;;;;;;;5.55;85.96;99766.72;4802788;29;20055;-63
2022/10/04 14:41:43;;;;;;;1.65;0.60;;;;;;;5.56;86.05;99771.00;4781929;29;20062;-63
2022/10/04 14:44:52;;;;;;;3.45;0.90;;;;;;;5.59;85.92;99776.22;4811175;29;20066;-62
2022/10/04 14:47:57;;;;;;;6.03;0.70;;;;;;;5.65;86.40;99775.31;4811831;29;20058;-63
2022/10/04 14:51:18;;;;;;;3.13;0.70;;;;;;;5.59;86.02;99765.84;4757970;30;20098;-63
2022/10/04 14:57:05;;;;;;;4.10;1.05;;;;;;;5.37;85.69;99722.75;4775871;30;20130;-63
2022/10/04 15:00:39;;;;;;;3.88;1.15;;;;;;;5.68;85.71;99771.84;4861546;29;20045;-63
2022/10/04 15:03:48;;;;;;;4.22;0.70;;;;;;;5.80;85.62;99789.94;4866499;29;20209;-62
2022/10/04 15:06:57;;;;;;;3.13;0.75;;;;;;;5.87;85.38;99794.22;4846697;29;20057;-64
2022/10/04 15:10:11;;;;;;;2.63;0.75;;;;;;;5.91;85.59;99793.31;4849889;29;20073;-63
2022/10/04 15:13:10;;;;;;;1.88;0.75;;;;;;;5.91;85.89;99792.47;4839113;29;20120;-63
2022/10/04 15:16:12;;;;;;;4.47;0.73;;;;;;;5.94;85.73;99790.78;4851735;29;20079;-63
2022/10/04 15:19:05;;;;;;;1.58;0.57;;;;;;;5.83;85.50;99784.72;4854167;29;20060;-63
2022/10/04 15:22:03;;;;;;;2.88;0.60;;;;;;;5.87;86.08;99791.63;4865973;29;20119;-63
2022/10/04 15:24:48;;;;;;;4.00;0.82;;;;;;;5.81;86.04;99796.84;4866523;29;20080;-64
2022/10/04 15:28:02;;;;;;;1.95;0.85;;;;;;;5.79;86.15;99799.44;4884613;29;20066;-63
2022/10/04 15:31:12;;;;;;;3.90;0.65;;;;;;;5.77;86.57;99800.34;4924235;29;20052;-63
2022/10/04 15:34:14;;;;;;;3.35;0.75;;;;;;;5.76;86.74;99803.78;4924299;29;20099;-64
2022/10/04 15:37:24;;;;;;;3.78;0.90;;;;;;;5.80;86.93;99801.16;4929417;29;20064;-63
2022/10/04 15:40:32;;;;;;;1.33;0.70;;;;;;;5.79;86.64;99806.34;4923889;29;20044;-63
2022/10/04 15:43:33;;;;;;;3.97;0.77;;;;;;;5.74;86.35;99796.03;4923945;29;20099;-64
2022/10/04 15:46:41;;;;;;;4.30;0.88;;;;;;;5.70;86.60;99809.00;4924189;29;20071;-64
2022/10/04 15:49:48;;;;;;;2.40;0.80;;;;;;;5.66;86.98;99807.28;4923295;29;20128;-64
2022/10/04 15:53:09;;;;;;;1.63;0.90;;;;;;;5.46;87.48;99794.38;4923929;29;20063;-63
2022/10/04 15:56:34;;;;;;;6.05;0.90;;;;;;;5.66;87.81;99823.69;4925107;29;20344;-63
2022/10/04 15:59:52;;;;;;;1.02;0.80;;;;;;;5.66;88.12;99828.00;4887875;29;20063;-63
2022/10/04 16:02:55;;;;;;;2.70;0.90;;;;;;;5.72;88.20;99833.19;4927174;29;20060;-63
2022/10/04 16:06:04;;;;;;;1.98;0.70;;;;;;;5.79;88.15;99819.31;4927205;29;20058;-64
2022/10/04 16:09:00;;;;;;;2.63;0.77;;;;;;;5.80;87.55;99831.41;4927867;29;20188;-63
2022/10/04 16:12:05;;;;;;;1.60;0.70;;;;;;;5.83;87.53;99826.22;4924815;29;20067;-63
2022/10/04 16:15:18;;;;;;;1.13;0.75;;;;;;;5.87;87.55;99833.13;4926989;29;20055;-61
2022/10/04 16:18:44;;;;;;;1.95;0.70;;;;;;;5.91;87.44;99834.81;4896832;29;20056;-61
2022/10/04 16:21:35;;;;;;;2.67;0.90;;;;;;;5.70;87.25;99798.63;4910555;29;20056;-61
2022/10/04 16:24:56;;;;;;;4.40;1.15;;;;;;;5.85;87.17;99834.84;4910578;29;20099;-62
2022/10/04 16:28:15;;;;;;;2.83;1.00;;;;;;;5.84;87.17;99839.19;4910526;29;20321;-62
2022/10/04 16:31:29;;;;;;;1.65;0.70;;;;;;;5.83;86.76;99844.38;4910485;29;20217;-62
2022/10/04 16:38:00;;;;;;;1.42;0.50;;;;;;;5.61;84.38;99857.38;4855124;29;20079;-63
2022/10/04 16:40:46;;;;;;;0.65;0.60;;;;;;;5.63;84.89;99860.84;4910492;29;20056;-63
2022/10/04 16:43:30;;;;;;;3.22;0.80;;;;;;;5.59;84.79;99853.97;4910861;29;20128;-62
2022/10/04 16:46:29;;;;;;;1.17;0.63;;;;;;;5.61;85.14;99867.75;4910008;29;20057;-62
2022/10/04 16:49:24;;;;;;;1.30;0.50;;;;;;;5.56;85.30;99869.50;4910182;29;20068;-61
2022/10/04 16:52:35;;;;;;;0.63;0.50;;;;;;;5.38;84.67;99852.25;4910114;29;20052;-61
2022/10/04 16:56:01;;;;;;;0.50;0.50;;;;;;;5.43;85.48;99878.16;4909960;29;20052;-61
2022/10/04 16:59:13;;;;;;;1.40;0.50;;;;;;;5.03;85.52;99834.19;4870166;29;20295;-63
2022/10/04 17:02:18;;;;;;;2.50;0.70;;;;;;;5.25;86.18;99883.38;4869201;29;20156;-61
2022/10/04 17:05:29;;;;;;;0.50;0.50;;;;;;;4.66;86.49;99810.03;4871238;29;20061;-62
2022/10/04 17:08:33;;;;;;;1.33;0.50;;;;;;;5.11;87.63;99880.78;4870763;29;20098;-61
2022/10/04 17:11:44;;;;;;;0.55;0.55;;;;;;;5.08;87.26;99871.28;4830072;29;20222;-60
2022/10/04 17:15:14;;;;;;;1.77;0.50;;;;;;;4.98;87.69;99879.94;4840369;29;20053;-61
2022/10/04 17:17:55;;;;;;;0.52;0.50;;;;;;;4.94;87.97;99867.84;4833543;29;20089;-61
2022/10/04 17:20:50;;;;;;;0.55;0.50;;;;;;;4.84;88.32;99863.53;4870621;29;20101;-61
2022/10/04 17:23:52;;;;;;;1.08;0.60;;;;;;;4.92;88.53;99879.94;4870232;29;20057;-61
2022/10/04 17:30:18;;;;;;;2.00;0.68;;;;;;;4.62;89.63;99866.09;4870206;29;20302;-62
2022/10/04 17:37:25;;;;;;;1.92;0.68;;;;;;;4.66;88.86;99893.69;4909369;29;20105;-64
2022/10/04 17:40:39;;;;;;;0.50;0.50;;;;;;;4.42;89.19;99867.78;4909434;29;20054;-63
2022/10/04 17:43:27;;;;;;;0.80;0.80;;;;;;;4.62;88.67;99907.50;4909423;29;20112;-62
2022/10/04 17:46:28;;;;;;;2.80;0.70;;;;;;;4.60;88.66;99908.38;4909469;29;20111;-62
2022/10/04 17:55:38;;;;;;;0.55;0.55;;;;;;;4.57;88.96;99909.22;4851587;29;20042;-62
2022/10/04 17:58:29;;;;;;;2.22;0.70;;;;;;;4.51;88.86;99901.44;4850450;29;20442;-62
2022/10/04 18:01:34;;;;;;;2.90;0.80;;;;;;;4.33;88.36;99874.66;4850533;29;20210;-63
2022/10/04 18:07:23;;;;;;;0.55;0.55;;;;;;;4.63;88.19;99927.34;4838543;29;19920;-62
2022/10/04 18:10:19;;;;;;;0.85;0.60;;;;;;;4.65;88.05;99933.41;4851599;29;20093;-61
2022/10/04 18:13:02;;;;;;;0.70;0.60;;;;;;;4.70;88.03;99930.81;4851239;29;20076;-62
2022/10/04 18:15:46;;;;;;;0.50;0.50;;;;;;;4.78;87.91;99942.03;4850699;29;20154;-62
2022/10/04 18:18:42;;;;;;;1.17;0.50;;;;;;;4.90;87.95;99948.97;4823714;29;20171;-61
2022/10/04 18:21:31;;;;;;;0.60;0.60;;;;;;;4.97;87.78;99961.06;4850389;29;20062;-62
2022/10/04 18:24:27;;;;;;;1.70;0.60;;;;;;;4.88;87.05;99929.97;4824107;29;20081;-62
2022/10/04 18:27:23;;;;;;;0.50;0.50;;;;;;;4.95;87.21;99952.44;4882736;29;20048;-63
2022/10/04 18:30:18;;;;;;;1.20;0.80;;;;;;;4.93;87.00;99943.78;4908496;29;20088;-62
2022/10/04 18:33:10;;;;;;;0.82;0.60;;;;;;;5.01;87.41;99962.78;4908581;29;20120;-62
2022/10/04 18:36:17;;;;;;;0.73;0.60;;;;;;;4.86;87.28;99957.59;4908314;29;20328;-62
2022/10/04 18:39:21;;;;;;;1.13;0.60;;;;;;;4.60;87.78;99921.31;4908699;29;20060;-62
2022/10/04 18:42:22;;;;;;;0.60;0.60;;;;;;;4.64;87.78;99923.91;4876409;29;20052;-62
2022/10/04 18:45:02;;;;;;;0.90;0.60;;;;;;;4.80;88.08;99973.13;4854037;29;20282;-61
2022/10/04 18:48:01;;;;;;;0.60;0.50;;;;;;;4.80;88.33;99971.38;4908652;29;20070;-62
2022/10/04 18:50:53;;;;;;;0.55;0.55;;;;;;;4.70;88.74;99973.09;4891807;29;20061;-62
2022/10/04 18:54:00;;;;;;;1.90;0.63;;;;;;;4.78;89.36;99985.19;4877955;29;20099;-63
2022/10/04 18:56:59;;;;;;;2.30;0.60;;;;;;;4.27;89.55;99905.69;4908254;29;20076;-65
2022/10/04 19:03:04;;;;;;;0.77;0.60;;;;;;;4.73;89.49;99973.09;4895929;29;20052;-62
2022/10/04 19:05:51;;;;;;;2.08;0.80;;;;;;;4.56;89.05;99951.47;4907692;29;20049;-63
2022/10/04 19:09:00;;;;;;;1.35;0.55;;;;;;;4.73;88.75;99998.13;4908010;29;20084;-64
2022/10/04 19:11:46;;;;;;;1.88;0.70;;;;;;;4.56;88.74;99987.69;4906361;29;20049;-62
2022/10/04 19:14:33;;;;;;;2.85;0.90;;;;;;;4.69;89.13;100002.44;4908008;29;20056;-62
2022/10/04 19:17:33;;;;;;;0.68;0.60;;;;;;;4.64;89.08;100001.56;4908165;29;20226;-62
2022/10/04 19:20:25;;;;;;;0.50;0.50;;;;;;;4.59;89.50;99994.59;4907858;29;20136;-62
2022/10/04 19:23:30;;;;;;;0.88;0.60;;;;;;;4.64;89.40;100011.91;4907864;29;20063;-62
2022/10/04 19:26:37;;;;;;;0.65;0.50;;;;;;;4.68;89.60;100010.19;4906574;29;20060;-62
2022/10/04 19:29:29;;;;;;;0.70;0.70;;;;;;;4.66;89.53;100015.34;4908000;29;20052;-62
2022/10/04 19:32:11;;;;;;;1.98;0.70;;;;;;;4.72;89.45;100023.13;4922727;29;20056;-62
2022/10/04 19:35:06;;;;;;;1.90;0.73;;;;;;;4.81;89.97;100021.44;4930426;29;20051;-64
2022/10/04 19:38:00;;;;;;;2.63;0.90;;;;;;;4.82;89.53;100024.03;4930444;29;20127;-63
2022/10/04 19:40:51;;;;;;;1.85;0.80;;;;;;;4.84;89.70;100021.44;4930789;29;20056;-62
2022/10/04 19:43:55;;;;;;;1.15;0.65;;;;;;;4.70;89.38;99995.53;4930203;29;20056;-62
2022/10/04 19:46:45;;;;;;;4.43;0.70;;;;;;;4.88;88.77;100033.53;4901512;29;20088;-62
2022/10/04 19:49:48;;;;;;;0.65;0.50;;;;;;;4.45;88.61;99959.22;4930732;29;20044;-62
2022/10/04 19:52:37;;;;;;;0.77;0.70;;;;;;;4.94;89.06;100038.72;4930029;29;20217;-62
2022/10/04 19:55:26;;;;;;;1.58;0.70;;;;;;;4.97;89.29;100033.56;4919585;29;20123;-62
2022/10/04 19:58:15;;;;;;;0.60;0.60;;;;;;;4.53;89.89;99964.41;4929608;29;20131;-62
2022/10/04 20:04:33;;;;;;;1.50;0.70;;;;;;;5.25;90.92;100049.19;4929988;29;20064;-62
2022/10/04 20:07:05;;;;;;;3.22;0.60;;;;;;;5.25;91.24;100042.25;4905052;29;20066;-62
2022/10/04 20:09:54;;;;;;;3.15;0.80;;;;;;;5.35;91.51;100049.19;4898976;29;20071;-62
2022/10/04 20:12:37;;;;;;;2.20;0.95;;;;;;;5.36;91.50;100063.00;4929418;29;20143;-62
2022/10/04 20:15:48;;;;;;;1.95;0.80;;;;;;;5.37;91.31;100060.41;4929670;29;20056;-62
2022/10/04 20:19:14;;;;;;;4.43;0.65;;;;;;;5.35;91.42;100061.28;4929528;29;20064;-62
2022/10/04 20:21:57;;;;;;;1.55;1.00;;;;;;;5.37;91.29;100080.28;4939920;29;20071;-61
2022/10/04 20:25:10;;;;;;;2.28;0.80;;;;;;;5.41;91.46;100079.41;4928625;29;20104;-61
2022/10/04 20:28:15;;;;;;;2.60;0.88;;;;;;;5.37;91.83;100064.75;4929795;29;20123;-61
2022/10/04 20:30:53;;;;;;;1.35;0.70;;;;;;;5.32;91.79;100066.47;4929083;29;20063;-61
2022/10/04 20:34:19;;;;;;;1.33;0.63;;;;;;;5.35;90.94;100087.19;4918865;29;20067;-61
2022/10/04 20:43:36;;;;;;;3.67;0.60;;;;;;;5.01;90.29;100097.44;4887404;29;20064;-62
2022/10/04 20:46:38;;;;;;;0.60;0.60;;;;;;;5.00;90.64;100111.25;4840885;29;20108;-62
2022/10/04 20:49:19;;;;;;;0.90;0.60;;;;;;;5.07;90.84;100107.84;4881356;29;20103;-62
2022/10/04 20:52:33;;;;;;;1.83;0.70;;;;;;;5.19;90.74;100117.34;4874060;29;20105;-61
2022/10/04 20:55:31;;;;;;;4.57;0.80;;;;;;;5.19;91.19;100107.88;4870641;29;20053;-61
2022/10/04 20:58:39;;;;;;;0.70;0.70;;;;;;;5.31;90.90;100117.38;4870579;29;20054;-61
2022/10/04 21:04:29;;;;;;;1.10;0.60;;;;;;;5.26;90.56;100118.25;4869855;29;20133;-62
2022/10/04 21:07:15;;;;;;;0.60;0.60;;;;;;;5.34;90.26;100126.91;4870880;29;20475;-62
2022/10/04 21:10:09;;;;;;;1.45;0.85;;;;;;;5.09;90.25;100100.94;4878093;29;20045;-62
2022/10/04 21:15:57;;;;;;;1.63;0.68;;;;;;;5.28;89.09;100143.28;4909338;29;20067;-62
2022/10/04 21:18:48;;;;;;;0.75;0.65;;;;;;;5.26;86.57;100159.69;4909574;29;20059;-62
2022/10/04 21:21:55;;;;;;;3.45;0.88;;;;;;;5.27;86.07;100166.63;4906750;29;20053;-63
2022/10/04 21:24:57;;;;;;;1.60;0.70;;;;;;;5.07;85.66;100143.25;4908998;29;20052;-62
2022/10/04 21:27:39;;;;;;;0.55;0.55;;;;;;;5.22;84.77;100176.06;4908231;29;20052;-62
2022/10/04 21:30:21;;;;;;;0.68;0.60;;;;;;;5.04;84.75;100180.34;4909489;29;20062;-62
2022/10/04 21:36:02;;;;;;;0.82;0.50;;;;;;;5.09;83.61;100199.38;4879611;29;20250;-62
2022/10/04 21:38:57;;;;;;;0.60;0.60;;;;;;;5.06;82.76;100199.31;4909111;29;20096;-62